sensor_id;sensor_type;location;lat;lon;timestamp;P1;durP1;ratioP1;P2;durP2;ratioP2
5297;SDS011;14738;42.668;23.250;2024-03-06T00:00:45;23.07;;;14.03;;
5297;SDS011;14738;42.668;23.250;2024-03-06T00:03:10;28.87;;;16.13;;
5297;SDS011;14738;42.668;23.250;2024-03-06T00:05:36;22.87;;;15.60;;
5297;SDS011;14738;42.668;23.250;2024-03-06T00:08:01;22.17;;;14.77;;
5297;SDS011;14738;42.668;23.250;2024-03-06T00:10:28;22.07;;;14.53;;
5297;SDS011;14738;42.668;23.250;2024-03-06T00:12:54;20.97;;;14.13;;
5297;SDS011;14738;42.668;23.250;2024-03-06T00:15:19;18.50;;;13.50;;
5297;SDS011;14738;42.668;23.250;2024-03-06T00:17:45;22.40;;;13.70;;
5297;SDS011;14738;42.668;23.250;2024-03-06T00:20:10;18.40;;;14.07;;
5297;SDS011;14738;42.668;23.250;2024-03-06T00:22:36;21.47;;;14.73;;
5297;SDS011;14738;42.668;23.250;2024-03-06T00:25:01;19.53;;;14.13;;
5297;SDS011;14738;42.668;23.250;2024-03-06T00:27:28;19.17;;;13.53;;
5297;SDS011;14738;42.668;23.250;2024-03-06T00:29:53;21.00;;;14.60;;
5297;SDS011;14738;42.668;23.250;2024-03-06T00:32:18;23.83;;;14.47;;
5297;SDS011;14738;42.668;23.250;2024-03-06T00:34:44;20.07;;;12.87;;
5297;SDS011;14738;42.668;23.250;2024-03-06T00:37:09;17.43;;;13.10;;
5297;SDS011;14738;42.668;23.250;2024-03-06T00:39:35;19.70;;;14.60;;
5297;SDS011;14738;42.668;23.250;2024-03-06T00:42:00;23.03;;;15.33;;
5297;SDS011;14738;42.668;23.250;2024-03-06T00:44:26;23.97;;;15.00;;
5297;SDS011;14738;42.668;23.250;2024-03-06T00:46:51;25.77;;;16.83;;
5297;SDS011;14738;42.668;23.250;2024-03-06T00:49:16;26.27;;;16.73;;
5297;SDS011;14738;42.668;23.250;2024-03-06T00:51:42;28.00;;;16.70;;
5297;SDS011;14738;42.668;23.250;2024-03-06T00:54:07;20.33;;;15.00;;
5297;SDS011;14738;42.668;23.250;2024-03-06T00:56:36;21.37;;;14.57;;
5297;SDS011;14738;42.668;23.250;2024-03-06T00:59:03;23.97;;;14.40;;
5297;SDS011;14738;42.668;23.250;2024-03-06T01:01:28;19.73;;;14.40;;
5297;SDS011;14738;42.668;23.250;2024-03-06T01:03:54;21.70;;;13.70;;
5297;SDS011;14738;42.668;23.250;2024-03-06T01:06:20;26.57;;;15.10;;
5297;SDS011;14738;42.668;23.250;2024-03-06T01:08:45;24.07;;;14.93;;
5297;SDS011;14738;42.668;23.250;2024-03-06T01:11:11;20.20;;;14.47;;
5297;SDS011;14738;42.668;23.250;2024-03-06T01:13:39;22.53;;;16.27;;
5297;SDS011;14738;42.668;23.250;2024-03-06T01:16:05;23.17;;;16.27;;
5297;SDS011;14738;42.668;23.250;2024-03-06T01:18:31;24.50;;;16.60;;
5297;SDS011;14738;42.668;23.250;2024-03-06T01:20:56;24.20;;;16.80;;
5297;SDS011;14738;42.668;23.250;2024-03-06T01:23:22;26.73;;;16.20;;
5297;SDS011;14738;42.668;23.250;2024-03-06T01:25:47;25.37;;;17.20;;
5297;SDS011;14738;42.668;23.250;2024-03-06T01:28:12;24.17;;;16.63;;
5297;SDS011;14738;42.668;23.250;2024-03-06T01:30:38;23.87;;;16.30;;
5297;SDS011;14738;42.668;23.250;2024-03-06T01:33:03;23.70;;;16.60;;
5297;SDS011;14738;42.668;23.250;2024-03-06T01:35:30;24.93;;;17.10;;
5297;SDS011;14738;42.668;23.250;2024-03-06T01:37:55;24.90;;;16.63;;
5297;SDS011;14738;42.668;23.250;2024-03-06T01:40:20;27.57;;;16.67;;
5297;SDS011;14738;42.668;23.250;2024-03-06T01:42:46;26.30;;;17.53;;
5297;SDS011;14738;42.668;23.250;2024-03-06T01:45:14;31.50;;;18.00;;
5297;SDS011;14738;42.668;23.250;2024-03-06T01:47:39;27.43;;;16.47;;
5297;SDS011;14738;42.668;23.250;2024-03-06T01:50:05;25.23;;;16.47;;
5297;SDS011;14738;42.668;23.250;2024-03-06T01:52:34;23.40;;;15.77;;
5297;SDS011;14738;42.668;23.250;2024-03-06T01:55:00;23.93;;;16.53;;
5297;SDS011;14738;42.668;23.250;2024-03-06T01:57:26;27.53;;;18.13;;
5297;SDS011;14738;42.668;23.250;2024-03-06T01:59:52;27.30;;;17.07;;
5297;SDS011;14738;42.668;23.250;2024-03-06T02:02:18;25.30;;;16.57;;
5297;SDS011;14738;42.668;23.250;2024-03-06T02:04:45;24.50;;;16.47;;
5297;SDS011;14738;42.668;23.250;2024-03-06T02:07:11;25.63;;;16.07;;
5297;SDS011;14738;42.668;23.250;2024-03-06T02:09:38;32.23;;;17.50;;
5297;SDS011;14738;42.668;23.250;2024-03-06T02:12:05;27.97;;;16.63;;
5297;SDS011;14738;42.668;23.250;2024-03-06T02:14:30;21.73;;;16.37;;
5297;SDS011;14738;42.668;23.250;2024-03-06T02:16:56;25.90;;;16.80;;
5297;SDS011;14738;42.668;23.250;2024-03-06T02:19:21;25.03;;;15.07;;
5297;SDS011;14738;42.668;23.250;2024-03-06T02:21:47;19.37;;;11.87;;
5297;SDS011;14738;42.668;23.250;2024-03-06T02:24:13;18.40;;;12.97;;
5297;SDS011;14738;42.668;23.250;2024-03-06T02:26:39;21.17;;;13.63;;
5297;SDS011;14738;42.668;23.250;2024-03-06T02:29:06;18.70;;;12.53;;
5297;SDS011;14738;42.668;23.250;2024-03-06T02:31:31;20.00;;;14.40;;
5297;SDS011;14738;42.668;23.250;2024-03-06T02:33:58;24.83;;;16.23;;
5297;SDS011;14738;42.668;23.250;2024-03-06T02:36:23;26.13;;;17.23;;
5297;SDS011;14738;42.668;23.250;2024-03-06T02:38:49;25.90;;;16.10;;
5297;SDS011;14738;42.668;23.250;2024-03-06T02:41:15;24.40;;;15.87;;
5297;SDS011;14738;42.668;23.250;2024-03-06T02:43:41;22.07;;;14.97;;
5297;SDS011;14738;42.668;23.250;2024-03-06T02:46:07;22.73;;;15.87;;
5297;SDS011;14738;42.668;23.250;2024-03-06T02:48:32;21.00;;;14.00;;
5297;SDS011;14738;42.668;23.250;2024-03-06T02:50:58;19.77;;;15.13;;
5297;SDS011;14738;42.668;23.250;2024-03-06T02:53:23;25.67;;;15.50;;
5297;SDS011;14738;42.668;23.250;2024-03-06T02:55:50;21.90;;;15.63;;
5297;SDS011;14738;42.668;23.250;2024-03-06T02:58:15;26.50;;;16.60;;
5297;SDS011;14738;42.668;23.250;2024-03-06T03:00:43;24.97;;;14.87;;
5297;SDS011;14738;42.668;23.250;2024-03-06T03:03:09;24.67;;;15.83;;
5297;SDS011;14738;42.668;23.250;2024-03-06T03:05:39;21.83;;;14.27;;
5297;SDS011;14738;42.668;23.250;2024-03-06T03:08:05;22.33;;;14.97;;
5297;SDS011;14738;42.668;23.250;2024-03-06T03:10:31;26.30;;;14.50;;
5297;SDS011;14738;42.668;23.250;2024-03-06T03:12:59;19.67;;;14.87;;
5297;SDS011;14738;42.668;23.250;2024-03-06T03:15:24;23.10;;;15.00;;
5297;SDS011;14738;42.668;23.250;2024-03-06T03:17:50;24.30;;;13.83;;
5297;SDS011;14738;42.668;23.250;2024-03-06T03:20:15;17.77;;;13.90;;
5297;SDS011;14738;42.668;23.250;2024-03-06T03:22:42;20.33;;;13.97;;
5297;SDS011;14738;42.668;23.250;2024-03-06T03:25:11;20.80;;;13.10;;
5297;SDS011;14738;42.668;23.250;2024-03-06T03:27:38;23.27;;;13.60;;
5297;SDS011;14738;42.668;23.250;2024-03-06T03:30:12;21.00;;;13.20;;
5297;SDS011;14738;42.668;23.250;2024-03-06T03:32:38;19.03;;;14.00;;
5297;SDS011;14738;42.668;23.250;2024-03-06T03:35:04;16.00;;;12.43;;
5297;SDS011;14738;42.668;23.250;2024-03-06T03:37:31;20.07;;;12.40;;
5297;SDS011;14738;42.668;23.250;2024-03-06T03:39:57;17.30;;;13.20;;
5297;SDS011;14738;42.668;23.250;2024-03-06T03:42:22;16.23;;;11.80;;
5297;SDS011;14738;42.668;23.250;2024-03-06T03:44:47;16.77;;;11.90;;
5297;SDS011;14738;42.668;23.250;2024-03-06T03:47:13;20.87;;;14.23;;
5297;SDS011;14738;42.668;23.250;2024-03-06T03:49:38;18.63;;;12.67;;
5297;SDS011;14738;42.668;23.250;2024-03-06T03:52:04;18.83;;;12.17;;
5297;SDS011;14738;42.668;23.250;2024-03-06T03:54:29;16.73;;;11.43;;
5297;SDS011;14738;42.668;23.250;2024-03-06T03:56:55;18.70;;;12.10;;
5297;SDS011;14738;42.668;23.250;2024-03-06T03:59:20;18.10;;;13.10;;
5297;SDS011;14738;42.668;23.250;2024-03-06T04:01:45;22.60;;;14.27;;
5297;SDS011;14738;42.668;23.250;2024-03-06T04:04:15;20.63;;;15.73;;
5297;SDS011;14738;42.668;23.250;2024-03-06T04:06:40;21.17;;;14.67;;
5297;SDS011;14738;42.668;23.250;2024-03-06T04:09:06;22.73;;;15.23;;
5297;SDS011;14738;42.668;23.250;2024-03-06T04:11:35;18.83;;;13.80;;
5297;SDS011;14738;42.668;23.250;2024-03-06T04:14:06;19.00;;;13.77;;
5297;SDS011;14738;42.668;23.250;2024-03-06T04:16:32;22.17;;;14.83;;
5297;SDS011;14738;42.668;23.250;2024-03-06T04:19:00;21.97;;;14.13;;
5297;SDS011;14738;42.668;23.250;2024-03-06T04:21:26;21.20;;;15.27;;
5297;SDS011;14738;42.668;23.250;2024-03-06T04:23:51;18.77;;;13.50;;
5297;SDS011;14738;42.668;23.250;2024-03-06T04:26:17;19.57;;;12.87;;
5297;SDS011;14738;42.668;23.250;2024-03-06T04:28:42;20.50;;;13.53;;
5297;SDS011;14738;42.668;23.250;2024-03-06T04:31:08;17.90;;;12.80;;
5297;SDS011;14738;42.668;23.250;2024-03-06T04:33:34;17.07;;;13.57;;
5297;SDS011;14738;42.668;23.250;2024-03-06T04:36:03;20.37;;;13.03;;
5297;SDS011;14738;42.668;23.250;2024-03-06T04:38:30;26.00;;;16.23;;
5297;SDS011;14738;42.668;23.250;2024-03-06T04:40:56;24.43;;;14.53;;
5297;SDS011;14738;42.668;23.250;2024-03-06T04:43:21;19.87;;;13.90;;
5297;SDS011;14738;42.668;23.250;2024-03-06T04:45:47;22.50;;;14.90;;
5297;SDS011;14738;42.668;23.250;2024-03-06T04:48:12;21.70;;;14.47;;
5297;SDS011;14738;42.668;23.250;2024-03-06T04:50:38;28.37;;;15.73;;
5297;SDS011;14738;42.668;23.250;2024-03-06T04:53:03;22.83;;;15.90;;
5297;SDS011;14738;42.668;23.250;2024-03-06T04:55:29;30.33;;;18.10;;
5297;SDS011;14738;42.668;23.250;2024-03-06T04:57:55;26.63;;;18.27;;
5297;SDS011;14738;42.668;23.250;2024-03-06T05:00:21;28.07;;;18.47;;
5297;SDS011;14738;42.668;23.250;2024-03-06T05:02:46;28.87;;;19.57;;
5297;SDS011;14738;42.668;23.250;2024-03-06T05:05:14;25.37;;;17.73;;
5297;SDS011;14738;42.668;23.250;2024-03-06T05:07:40;28.80;;;17.53;;
5297;SDS011;14738;42.668;23.250;2024-03-06T05:10:05;25.33;;;17.90;;
5297;SDS011;14738;42.668;23.250;2024-03-06T05:12:32;23.73;;;16.20;;
5297;SDS011;14738;42.668;23.250;2024-03-06T05:14:59;24.67;;;16.63;;
5297;SDS011;14738;42.668;23.250;2024-03-06T05:17:26;25.33;;;17.07;;
5297;SDS011;14738;42.668;23.250;2024-03-06T05:19:51;23.47;;;16.10;;
5297;SDS011;14738;42.668;23.250;2024-03-06T05:22:17;22.27;;;15.07;;
5297;SDS011;14738;42.668;23.250;2024-03-06T05:24:42;24.17;;;16.70;;
5297;SDS011;14738;42.668;23.250;2024-03-06T05:27:08;26.17;;;15.43;;
5297;SDS011;14738;42.668;23.250;2024-03-06T05:29:35;23.93;;;15.77;;
5297;SDS011;14738;42.668;23.250;2024-03-06T05:32:01;25.27;;;17.03;;
5297;SDS011;14738;42.668;23.250;2024-03-06T05:34:28;22.43;;;15.93;;
5297;SDS011;14738;42.668;23.250;2024-03-06T05:36:55;21.97;;;15.73;;
5297;SDS011;14738;42.668;23.250;2024-03-06T05:39:21;20.10;;;15.40;;
5297;SDS011;14738;42.668;23.250;2024-03-06T05:41:46;24.03;;;15.93;;
5297;SDS011;14738;42.668;23.250;2024-03-06T05:44:11;24.33;;;15.80;;
5297;SDS011;14738;42.668;23.250;2024-03-06T05:46:37;26.30;;;17.03;;
5297;SDS011;14738;42.668;23.250;2024-03-06T05:49:02;25.00;;;16.50;;
5297;SDS011;14738;42.668;23.250;2024-03-06T05:51:29;19.70;;;15.23;;
5297;SDS011;14738;42.668;23.250;2024-03-06T05:53:55;19.90;;;15.20;;
5297;SDS011;14738;42.668;23.250;2024-03-06T05:56:21;22.00;;;15.77;;
5297;SDS011;14738;42.668;23.250;2024-03-06T05:58:47;28.37;;;17.70;;
5297;SDS011;14738;42.668;23.250;2024-03-06T06:01:14;21.30;;;15.73;;
5297;SDS011;14738;42.668;23.250;2024-03-06T06:03:47;22.07;;;16.47;;
5297;SDS011;14738;42.668;23.250;2024-03-06T06:06:16;25.27;;;17.97;;
5297;SDS011;14738;42.668;23.250;2024-03-06T06:08:44;28.03;;;18.17;;
5297;SDS011;14738;42.668;23.250;2024-03-06T06:11:10;21.03;;;16.77;;
5297;SDS011;14738;42.668;23.250;2024-03-06T06:13:36;26.10;;;16.90;;
5297;SDS011;14738;42.668;23.250;2024-03-06T06:16:03;21.63;;;16.60;;
5297;SDS011;14738;42.668;23.250;2024-03-06T06:18:28;24.07;;;17.80;;
5297;SDS011;14738;42.668;23.250;2024-03-06T06:20:54;20.50;;;16.60;;
5297;SDS011;14738;42.668;23.250;2024-03-06T06:23:19;22.10;;;16.80;;
5297;SDS011;14738;42.668;23.250;2024-03-06T06:25:45;30.63;;;20.60;;
5297;SDS011;14738;42.668;23.250;2024-03-06T06:28:10;34.87;;;25.00;;
5297;SDS011;14738;42.668;23.250;2024-03-06T06:30:36;35.20;;;24.50;;
5297;SDS011;14738;42.668;23.250;2024-03-06T06:33:03;29.50;;;22.33;;
5297;SDS011;14738;42.668;23.250;2024-03-06T06:35:29;31.97;;;23.00;;
5297;SDS011;14738;42.668;23.250;2024-03-06T06:37:55;33.27;;;21.70;;
5297;SDS011;14738;42.668;23.250;2024-03-06T06:40:20;27.20;;;20.67;;
5297;SDS011;14738;42.668;23.250;2024-03-06T06:42:47;29.47;;;20.27;;
5297;SDS011;14738;42.668;23.250;2024-03-06T06:45:14;27.97;;;21.10;;
5297;SDS011;14738;42.668;23.250;2024-03-06T06:47:40;31.90;;;21.37;;
5297;SDS011;14738;42.668;23.250;2024-03-06T06:50:06;27.00;;;21.70;;
5297;SDS011;14738;42.668;23.250;2024-03-06T06:52:34;31.53;;;22.87;;
5297;SDS011;14738;42.668;23.250;2024-03-06T06:54:59;31.47;;;22.30;;
5297;SDS011;14738;42.668;23.250;2024-03-06T06:57:25;29.70;;;20.40;;
5297;SDS011;14738;42.668;23.250;2024-03-06T06:59:51;32.80;;;21.80;;
5297;SDS011;14738;42.668;23.250;2024-03-06T07:02:17;34.83;;;23.67;;
5297;SDS011;14738;42.668;23.250;2024-03-06T07:04:43;31.93;;;24.90;;
5297;SDS011;14738;42.668;23.250;2024-03-06T07:07:08;34.73;;;25.17;;
5297;SDS011;14738;42.668;23.250;2024-03-06T07:09:33;36.17;;;22.60;;
5297;SDS011;14738;42.668;23.250;2024-03-06T07:11:59;32.50;;;22.43;;
5297;SDS011;14738;42.668;23.250;2024-03-06T07:14:25;30.03;;;22.00;;
5297;SDS011;14738;42.668;23.250;2024-03-06T07:16:50;39.43;;;22.03;;
5297;SDS011;14738;42.668;23.250;2024-03-06T07:19:16;34.73;;;20.83;;
5297;SDS011;14738;42.668;23.250;2024-03-06T07:21:42;25.87;;;20.10;;
5297;SDS011;14738;42.668;23.250;2024-03-06T07:24:07;29.57;;;19.50;;
5297;SDS011;14738;42.668;23.250;2024-03-06T07:26:33;27.83;;;18.67;;
5297;SDS011;14738;42.668;23.250;2024-03-06T07:28:59;28.20;;;18.70;;
5297;SDS011;14738;42.668;23.250;2024-03-06T07:31:25;38.13;;;20.23;;
5297;SDS011;14738;42.668;23.250;2024-03-06T07:33:50;27.57;;;20.57;;
5297;SDS011;14738;42.668;23.250;2024-03-06T07:36:16;25.13;;;18.40;;
5297;SDS011;14738;42.668;23.250;2024-03-06T07:38:42;28.93;;;20.23;;
5297;SDS011;14738;42.668;23.250;2024-03-06T07:41:08;30.87;;;19.20;;
5297;SDS011;14738;42.668;23.250;2024-03-06T07:43:33;33.30;;;21.20;;
5297;SDS011;14738;42.668;23.250;2024-03-06T07:45:59;32.70;;;21.20;;
5297;SDS011;14738;42.668;23.250;2024-03-06T07:48:24;27.23;;;19.87;;
5297;SDS011;14738;42.668;23.250;2024-03-06T07:50:50;29.73;;;19.50;;
5297;SDS011;14738;42.668;23.250;2024-03-06T07:53:15;25.77;;;19.27;;
5297;SDS011;14738;42.668;23.250;2024-03-06T07:55:41;23.17;;;19.13;;
5297;SDS011;14738;42.668;23.250;2024-03-06T07:58:07;26.50;;;19.47;;
5297;SDS011;14738;42.668;23.250;2024-03-06T08:00:35;34.77;;;20.03;;
5297;SDS011;14738;42.668;23.250;2024-03-06T08:03:01;26.67;;;18.57;;
5297;SDS011;14738;42.668;23.250;2024-03-06T08:05:27;26.13;;;19.47;;
5297;SDS011;14738;42.668;23.250;2024-03-06T08:07:53;24.43;;;18.77;;
5297;SDS011;14738;42.668;23.250;2024-03-06T08:10:19;36.33;;;21.23;;
5297;SDS011;14738;42.668;23.250;2024-03-06T08:12:44;29.80;;;19.87;;
5297;SDS011;14738;42.668;23.250;2024-03-06T08:15:13;27.30;;;18.20;;
5297;SDS011;14738;42.668;23.250;2024-03-06T08:17:39;23.23;;;18.97;;
5297;SDS011;14738;42.668;23.250;2024-03-06T08:20:07;27.40;;;19.00;;
5297;SDS011;14738;42.668;23.250;2024-03-06T08:22:37;27.37;;;20.00;;
5297;SDS011;14738;42.668;23.250;2024-03-06T08:25:07;28.57;;;17.80;;
5297;SDS011;14738;42.668;23.250;2024-03-06T08:27:34;27.87;;;19.27;;
5297;SDS011;14738;42.668;23.250;2024-03-06T08:30:00;29.70;;;20.60;;
5297;SDS011;14738;42.668;23.250;2024-03-06T08:32:25;26.00;;;19.47;;
5297;SDS011;14738;42.668;23.250;2024-03-06T08:34:51;27.33;;;18.90;;
5297;SDS011;14738;42.668;23.250;2024-03-06T08:37:16;29.33;;;19.50;;
5297;SDS011;14738;42.668;23.250;2024-03-06T08:39:41;30.00;;;21.00;;
5297;SDS011;14738;42.668;23.250;2024-03-06T08:42:07;24.00;;;20.07;;
5297;SDS011;14738;42.668;23.250;2024-03-06T08:44:33;30.50;;;21.57;;
5297;SDS011;14738;42.668;23.250;2024-03-06T08:46:58;27.00;;;19.93;;
5297;SDS011;14738;42.668;23.250;2024-03-06T08:49:24;28.23;;;20.20;;
5297;SDS011;14738;42.668;23.250;2024-03-06T08:51:49;30.40;;;20.07;;
5297;SDS011;14738;42.668;23.250;2024-03-06T08:54:15;32.93;;;21.60;;
5297;SDS011;14738;42.668;23.250;2024-03-06T08:56:42;30.97;;;23.13;;
5297;SDS011;14738;42.668;23.250;2024-03-06T08:59:08;33.30;;;24.10;;
5297;SDS011;14738;42.668;23.250;2024-03-06T09:01:34;40.73;;;25.27;;
5297;SDS011;14738;42.668;23.250;2024-03-06T09:03:59;32.97;;;23.37;;
5297;SDS011;14738;42.668;23.250;2024-03-06T09:06:25;41.50;;;24.77;;
5297;SDS011;14738;42.668;23.250;2024-03-06T09:08:50;37.90;;;23.63;;
5297;SDS011;14738;42.668;23.250;2024-03-06T09:11:17;36.03;;;23.90;;
5297;SDS011;14738;42.668;23.250;2024-03-06T09:13:42;31.80;;;23.90;;
5297;SDS011;14738;42.668;23.250;2024-03-06T09:16:07;27.87;;;22.27;;
5297;SDS011;14738;42.668;23.250;2024-03-06T09:18:33;32.67;;;21.57;;
5297;SDS011;14738;42.668;23.250;2024-03-06T09:20:59;28.30;;;21.47;;
5297;SDS011;14738;42.668;23.250;2024-03-06T09:23:24;28.23;;;21.47;;
5297;SDS011;14738;42.668;23.250;2024-03-06T09:25:51;34.47;;;21.80;;
5297;SDS011;14738;42.668;23.250;2024-03-06T09:28:16;25.70;;;18.20;;
5297;SDS011;14738;42.668;23.250;2024-03-06T09:30:42;25.00;;;16.60;;
5297;SDS011;14738;42.668;23.250;2024-03-06T09:33:07;30.63;;;19.80;;
5297;SDS011;14738;42.668;23.250;2024-03-06T09:35:33;42.17;;;21.23;;
5297;SDS011;14738;42.668;23.250;2024-03-06T09:37:58;29.40;;;19.83;;
5297;SDS011;14738;42.668;23.250;2024-03-06T09:40:26;27.23;;;19.00;;
5297;SDS011;14738;42.668;23.250;2024-03-06T09:42:51;22.90;;;18.20;;
5297;SDS011;14738;42.668;23.250;2024-03-06T09:45:18;28.53;;;19.47;;
5297;SDS011;14738;42.668;23.250;2024-03-06T09:47:44;22.20;;;17.10;;
5297;SDS011;14738;42.668;23.250;2024-03-06T09:50:12;29.50;;;17.30;;
5297;SDS011;14738;42.668;23.250;2024-03-06T09:52:41;22.10;;;16.13;;
5297;SDS011;14738;42.668;23.250;2024-03-06T09:55:11;24.43;;;18.00;;
5297;SDS011;14738;42.668;23.250;2024-03-06T09:57:37;22.53;;;16.93;;
5297;SDS011;14738;42.668;23.250;2024-03-06T10:00:03;28.07;;;18.00;;
5297;SDS011;14738;42.668;23.250;2024-03-06T10:02:34;20.03;;;16.13;;
5297;SDS011;14738;42.668;23.250;2024-03-06T10:05:04;18.97;;;15.90;;
5297;SDS011;14738;42.668;23.250;2024-03-06T10:07:30;13.63;;;11.83;;
5297;SDS011;14738;42.668;23.250;2024-03-06T10:09:56;23.13;;;15.37;;
5297;SDS011;14738;42.668;23.250;2024-03-06T10:12:22;23.87;;;15.80;;
5297;SDS011;14738;42.668;23.250;2024-03-06T10:14:50;28.43;;;15.33;;
5297;SDS011;14738;42.668;23.250;2024-03-06T10:17:20;18.43;;;13.37;;
5297;SDS011;14738;42.668;23.250;2024-03-06T10:19:49;18.43;;;12.20;;
5297;SDS011;14738;42.668;23.250;2024-03-06T10:22:18;21.90;;;12.67;;
5297;SDS011;14738;42.668;23.250;2024-03-06T10:24:44;19.23;;;15.10;;
5297;SDS011;14738;42.668;23.250;2024-03-06T10:27:14;27.40;;;16.47;;
5297;SDS011;14738;42.668;23.250;2024-03-06T10:29:42;26.63;;;16.13;;
5297;SDS011;14738;42.668;23.250;2024-03-06T10:32:08;15.80;;;12.43;;
5297;SDS011;14738;42.668;23.250;2024-03-06T10:34:33;20.77;;;15.23;;
5297;SDS011;14738;42.668;23.250;2024-03-06T10:37:00;20.57;;;15.00;;
5297;SDS011;14738;42.668;23.250;2024-03-06T10:39:29;18.50;;;13.50;;
5297;SDS011;14738;42.668;23.250;2024-03-06T10:41:56;16.70;;;12.10;;
5297;SDS011;14738;42.668;23.250;2024-03-06T10:44:25;17.03;;;9.67;;
5297;SDS011;14738;42.668;23.250;2024-03-06T10:47:01;12.70;;;7.90;;
5297;SDS011;14738;42.668;23.250;2024-03-06T10:49:28;11.50;;;7.63;;
5297;SDS011;14738;42.668;23.250;2024-03-06T10:51:58;17.73;;;9.20;;
5297;SDS011;14738;42.668;23.250;2024-03-06T10:54:28;8.80;;;7.77;;
5297;SDS011;14738;42.668;23.250;2024-03-06T10:56:59;9.33;;;8.10;;
5297;SDS011;14738;42.668;23.250;2024-03-06T10:59:26;9.93;;;7.50;;
5297;SDS011;14738;42.668;23.250;2024-03-06T11:01:54;11.13;;;7.90;;
5297;SDS011;14738;42.668;23.250;2024-03-06T11:04:22;22.13;;;8.43;;
5297;SDS011;14738;42.668;23.250;2024-03-06T11:06:53;11.70;;;8.20;;
5297;SDS011;14738;42.668;23.250;2024-03-06T11:09:24;10.33;;;8.20;;
5297;SDS011;14738;42.668;23.250;2024-03-06T11:11:51;12.70;;;7.80;;
5297;SDS011;14738;42.668;23.250;2024-03-06T11:14:17;8.30;;;7.50;;
5297;SDS011;14738;42.668;23.250;2024-03-06T11:16:56;14.30;;;9.80;;
5297;SDS011;14738;42.668;23.250;2024-03-06T11:28:15;18.53;;;9.60;;
5297;SDS011;14738;42.668;23.250;2024-03-06T11:31:24;21.17;;;12.50;;
5297;SDS011;14738;42.668;23.250;2024-03-06T11:33:47;11.63;;;8.50;;
5297;SDS011;14738;42.668;23.250;2024-03-06T11:41:18;13.90;;;8.50;;
5297;SDS011;14738;42.668;23.250;2024-03-06T11:43:44;10.87;;;8.60;;
5297;SDS011;14738;42.668;23.250;2024-03-06T11:46:11;9.43;;;8.53;;
5297;SDS011;14738;42.668;23.250;2024-03-06T11:48:36;11.70;;;10.60;;
5297;SDS011;14738;42.668;23.250;2024-03-06T11:51:02;12.40;;;9.17;;
5297;SDS011;14738;42.668;23.250;2024-03-06T11:53:32;13.17;;;9.77;;
5297;SDS011;14738;42.668;23.250;2024-03-06T11:55:59;11.30;;;8.40;;
5297;SDS011;14738;42.668;23.250;2024-03-06T11:58:24;9.40;;;8.50;;
5297;SDS011;14738;42.668;23.250;2024-03-06T12:00:50;9.67;;;8.10;;
5297;SDS011;14738;42.668;23.250;2024-03-06T12:03:17;14.50;;;8.83;;
5297;SDS011;14738;42.668;23.250;2024-03-06T12:05:44;10.23;;;8.80;;
5297;SDS011;14738;42.668;23.250;2024-03-06T12:08:09;11.63;;;8.43;;
5297;SDS011;14738;42.668;23.250;2024-03-06T12:10:38;10.17;;;8.00;;
5297;SDS011;14738;42.668;23.250;2024-03-06T12:13:04;9.00;;;7.90;;
5297;SDS011;14738;42.668;23.250;2024-03-06T12:15:30;8.20;;;6.80;;
5297;SDS011;14738;42.668;23.250;2024-03-06T12:17:55;6.40;;;5.80;;
5297;SDS011;14738;42.668;23.250;2024-03-06T12:20:21;10.97;;;6.40;;
5297;SDS011;14738;42.668;23.250;2024-03-06T12:22:53;8.17;;;7.47;;
5297;SDS011;14738;42.668;23.250;2024-03-06T12:25:25;8.10;;;6.27;;
5297;SDS011;14738;42.668;23.250;2024-03-06T12:27:52;8.37;;;7.57;;
5297;SDS011;14738;42.668;23.250;2024-03-06T12:30:19;15.27;;;6.80;;
5297;SDS011;14738;42.668;23.250;2024-03-06T12:33:01;7.23;;;6.53;;
5297;SDS011;14738;42.668;23.250;2024-03-06T12:35:31;8.47;;;6.73;;
5297;SDS011;14738;42.668;23.250;2024-03-06T12:37:57;8.37;;;7.53;;
5297;SDS011;14738;42.668;23.250;2024-03-06T12:40:23;7.23;;;6.53;;
5297;SDS011;14738;42.668;23.250;2024-03-06T12:42:49;13.23;;;9.80;;
5297;SDS011;14738;42.668;23.250;2024-03-06T12:45:17;12.23;;;9.67;;
5297;SDS011;14738;42.668;23.250;2024-03-06T12:47:43;10.70;;;7.37;;
5297;SDS011;14738;42.668;23.250;2024-03-06T12:50:10;6.77;;;5.63;;
5297;SDS011;14738;42.668;23.250;2024-03-06T12:52:37;8.77;;;7.17;;
5297;SDS011;14738;42.668;23.250;2024-03-06T12:55:03;9.10;;;7.10;;
5297;SDS011;14738;42.668;23.250;2024-03-06T12:57:32;8.57;;;7.67;;
5297;SDS011;14738;42.668;23.250;2024-03-06T12:59:57;9.60;;;8.50;;
5297;SDS011;14738;42.668;23.250;2024-03-06T13:02:23;9.77;;;7.93;;
5297;SDS011;14738;42.668;23.250;2024-03-06T13:04:50;9.00;;;7.70;;
5297;SDS011;14738;42.668;23.250;2024-03-06T13:07:15;9.57;;;7.43;;
5297;SDS011;14738;42.668;23.250;2024-03-06T13:09:40;9.07;;;7.17;;
5297;SDS011;14738;42.668;23.250;2024-03-06T13:12:06;8.53;;;6.90;;
5297;SDS011;14738;42.668;23.250;2024-03-06T13:14:32;8.47;;;7.57;;
5297;SDS011;14738;42.668;23.250;2024-03-06T13:16:58;8.23;;;7.40;;
5297;SDS011;14738;42.668;23.250;2024-03-06T13:19:23;11.33;;;5.80;;
5297;SDS011;14738;42.668;23.250;2024-03-06T13:21:49;8.60;;;6.60;;
5297;SDS011;14738;42.668;23.250;2024-03-06T13:24:14;6.00;;;5.50;;
5297;SDS011;14738;42.668;23.250;2024-03-06T13:26:39;6.70;;;5.70;;
5297;SDS011;14738;42.668;23.250;2024-03-06T13:29:05;12.93;;;6.13;;
5297;SDS011;14738;42.668;23.250;2024-03-06T13:31:31;7.10;;;6.50;;
5297;SDS011;14738;42.668;23.250;2024-03-06T13:33:59;6.93;;;6.33;;
5297;SDS011;14738;42.668;23.250;2024-03-06T13:36:25;6.67;;;5.97;;
5297;SDS011;14738;42.668;23.250;2024-03-06T13:38:50;10.90;;;6.33;;
5297;SDS011;14738;42.668;23.250;2024-03-06T13:41:16;8.27;;;6.87;;
5297;SDS011;14738;42.668;23.250;2024-03-06T13:43:42;7.30;;;6.10;;
5297;SDS011;14738;42.668;23.250;2024-03-06T13:46:08;6.87;;;6.17;;
5297;SDS011;14738;42.668;23.250;2024-03-06T13:48:33;6.07;;;5.57;;
5297;SDS011;14738;42.668;23.250;2024-03-06T13:50:59;8.63;;;6.00;;
5297;SDS011;14738;42.668;23.250;2024-03-06T13:53:24;5.93;;;5.43;;
5297;SDS011;14738;42.668;23.250;2024-03-06T13:55:49;10.13;;;6.40;;
5297;SDS011;14738;42.668;23.250;2024-03-06T13:58:15;7.53;;;5.83;;
5297;SDS011;14738;42.668;23.250;2024-03-06T14:00:41;5.83;;;5.17;;
5297;SDS011;14738;42.668;23.250;2024-03-06T14:03:06;7.00;;;6.30;;
5297;SDS011;14738;42.668;23.250;2024-03-06T14:05:31;6.37;;;5.80;;
5297;SDS011;14738;42.668;23.250;2024-03-06T14:07:57;6.60;;;6.00;;
5297;SDS011;14738;42.668;23.250;2024-03-06T14:10:22;6.40;;;5.70;;
5297;SDS011;14738;42.668;23.250;2024-03-06T14:12:49;7.27;;;5.97;;
5297;SDS011;14738;42.668;23.250;2024-03-06T14:15:17;7.20;;;6.50;;
5297;SDS011;14738;42.668;23.250;2024-03-06T14:17:44;8.30;;;6.67;;
5297;SDS011;14738;42.668;23.250;2024-03-06T14:20:10;13.13;;;7.57;;
5297;SDS011;14738;42.668;23.250;2024-03-06T14:22:37;9.57;;;7.10;;
5297;SDS011;14738;42.668;23.250;2024-03-06T14:25:03;8.07;;;7.20;;
5297;SDS011;14738;42.668;23.250;2024-03-06T14:27:29;9.10;;;7.20;;
5297;SDS011;14738;42.668;23.250;2024-03-06T14:29:55;9.60;;;8.70;;
5297;SDS011;14738;42.668;23.250;2024-03-06T14:32:20;15.70;;;8.30;;
5297;SDS011;14738;42.668;23.250;2024-03-06T14:34:46;10.90;;;9.20;;